createdAt,value
2019-04-25T00:01:52.286Z,14.80
2019-04-25T00:04:21.557Z,14.90
2019-04-25T00:06:50.205Z,14.90
2019-04-25T00:09:21.905Z,14.90
2019-04-25T00:11:52.311Z,14.90
2019-04-25T00:14:22.590Z,14.90
2019-04-25T00:16:51.885Z,14.80
2019-04-25T00:19:21.967Z,14.70
2019-04-25T00:22:02.079Z,14.80
2019-04-25T00:24:32.504Z,14.70
2019-04-25T00:27:02.184Z,14.80
2019-04-25T00:29:31.876Z,14.70
2019-04-25T00:32:01.684Z,14.80
2019-04-25T00:34:31.637Z,14.60
2019-04-25T00:37:02.336Z,14.70
2019-04-25T00:39:31.904Z,14.70
2019-04-25T00:42:02.144Z,14.70
2019-04-25T00:44:31.964Z,14.50
2019-04-25T00:47:02.314Z,14.60
2019-04-25T00:49:32.229Z,14.50
2019-04-25T00:52:02.027Z,14.50
2019-04-25T00:54:31.355Z,14.50
2019-04-25T00:57:02.162Z,14.50
2019-04-25T00:59:38.561Z,14.50
2019-04-25T01:02:18.038Z,14.40
2019-04-25T01:04:47.208Z,14.40
2019-04-25T01:07:16.211Z,14.30
2019-04-25T01:09:45.666Z,14.30
2019-04-25T01:12:16.094Z,14.30
2019-04-25T01:14:45.685Z,14.30
2019-04-25T01:17:18.130Z,14.40
2019-04-25T01:19:46.843Z,14.40
2019-04-25T01:22:16.737Z,14.20
2019-04-25T01:24:45.709Z,14.20
2019-04-25T01:27:15.269Z,14.30
2019-04-25T01:29:44.496Z,14.20
2019-04-25T01:32:14.881Z,14.20
2019-04-25T01:34:45.151Z,14.40
2019-04-25T01:37:15.484Z,14.30
2019-04-25T01:39:49.148Z,14.30
2019-04-25T01:42:18.877Z,14.20
2019-04-25T01:44:49.431Z,14.20
2019-04-25T01:47:19.239Z,14.20
2019-04-25T01:49:48.957Z,14.10
2019-04-25T01:52:18.677Z,14.00
2019-04-25T01:55:07.524Z,14.00
2019-04-25T01:57:37.237Z,14.00
2019-04-25T02:00:07.012Z,13.90
2019-04-25T02:02:58.594Z,13.90
2019-04-25T02:05:27.001Z,14.00
2019-04-25T02:07:55.828Z,13.90
2019-04-25T02:10:25.362Z,13.90
2019-04-25T02:12:56.321Z,13.80
2019-04-25T02:15:26.844Z,13.80
2019-04-25T02:17:57.871Z,13.90
2019-04-25T02:20:25.956Z,13.90
2019-04-25T02:22:55.347Z,13.80
2019-04-25T02:25:25.418Z,13.80
2019-04-25T02:27:55.699Z,13.70
2019-04-25T02:30:25.513Z,13.80
2019-04-25T02:32:58.374Z,13.80
2019-04-25T02:35:26.436Z,13.60
2019-04-25T02:37:57.971Z,13.60
2019-04-25T02:40:25.281Z,13.50
2019-04-25T02:42:55.789Z,13.60
2019-04-25T02:45:31.837Z,13.60
2019-04-25T02:48:17.931Z,13.60
2019-04-25T02:50:51.031Z,13.40
2019-04-25T02:53:37.309Z,13.30
2019-04-25T02:56:26.332Z,13.40
2019-04-25T02:58:36.650Z,13.40
2019-04-25T03:01:18.477Z,13.30
2019-04-25T03:03:38.317Z,13.40
2019-04-25T03:06:09.277Z,13.40
2019-04-25T03:08:37.565Z,13.30
2019-04-25T03:11:07.457Z,13.30
2019-04-25T03:13:36.594Z,13.30
2019-04-25T03:16:08.945Z,13.20
2019-04-25T03:18:40.918Z,13.10
2019-04-25T03:21:17.729Z,13.00
2019-04-25T03:23:48.840Z,13.20
2019-04-25T03:26:17.451Z,13.20
2019-04-25T03:28:46.041Z,13.10
2019-04-25T03:31:21.903Z,13.00
2019-04-25T03:33:45.860Z,13.00
2019-04-25T03:36:16.998Z,13.10
2019-04-25T03:38:45.329Z,13.10
2019-04-25T03:41:14.767Z,13.00
2019-04-25T03:43:44.896Z,13.00
2019-04-25T03:46:14.302Z,12.90
2019-04-25T03:48:44.129Z,12.90
2019-04-25T03:51:15.390Z,12.80
2019-04-25T03:53:43.835Z,12.80
2019-04-25T03:56:12.957Z,12.80
2019-04-25T03:58:43.971Z,12.80
2019-04-25T04:01:13.815Z,12.90
2019-04-25T04:03:43.969Z,12.80
2019-04-25T04:06:15.240Z,12.80
2019-04-25T04:08:45.501Z,12.90
2019-04-25T04:11:15.330Z,12.90
2019-04-25T04:13:44.380Z,13.10
2019-04-25T04:16:15.721Z,13.00
2019-04-25T04:18:46.030Z,13.10
2019-04-25T04:21:19.238Z,13.10
2019-04-25T04:24:06.151Z,13.30
2019-04-25T04:26:34.921Z,13.30
2019-04-25T04:29:04.737Z,13.20
2019-04-25T04:31:33.569Z,13.30
2019-04-25T04:34:03.666Z,13.20
2019-04-25T04:36:33.843Z,13.20
2019-04-25T04:39:03.903Z,13.20
2019-04-25T04:41:33.894Z,13.10
2019-04-25T04:44:04.109Z,13.20
2019-04-25T04:46:34.061Z,13.20
2019-04-25T04:49:03.889Z,13.20
2019-04-25T04:51:33.567Z,13.30
2019-04-25T04:54:03.419Z,13.30
2019-04-25T04:56:34.063Z,13.30
2019-04-25T04:59:03.646Z,13.20
2019-04-25T05:01:34.104Z,13.30
2019-04-25T05:04:10.605Z,13.50
2019-04-25T05:06:43.916Z,14.00
2019-04-25T05:09:15.292Z,14.30
2019-04-25T05:11:44.386Z,14.90
2019-04-25T05:14:14.890Z,15.10
2019-04-25T05:16:43.310Z,15.90
2019-04-25T05:19:12.904Z,15.40
2019-04-25T05:21:43.529Z,15.30
2019-04-25T05:24:13.477Z,15.40
2019-04-25T05:26:44.017Z,16.10
2019-04-25T05:29:13.981Z,16.60
2019-04-25T05:31:45.642Z,16.70
2019-04-25T05:34:15.753Z,15.80
2019-04-25T05:36:44.551Z,14.70
2019-04-25T05:39:16.319Z,14.50
2019-04-25T05:41:47.866Z,15.00
2019-04-25T05:44:16.936Z,15.60
2019-04-25T05:46:45.594Z,16.60
2019-04-25T05:49:15.463Z,17.20
2019-04-25T05:51:44.270Z,17.00
2019-04-25T05:54:14.081Z,18.00
2019-04-25T05:56:43.810Z,16.90
2019-04-25T05:59:13.457Z,16.60
2019-04-25T06:01:43.436Z,17.90
2019-04-25T06:04:13.927Z,17.70
2019-04-25T06:06:42.646Z,18.40
2019-04-25T06:09:26.187Z,17.60
2019-04-25T06:11:56.674Z,18.10
2019-04-25T06:14:26.242Z,18.10
2019-04-25T06:16:56.592Z,18.60
2019-04-25T06:19:43.529Z,18.10
2019-04-25T06:22:15.147Z,16.70
2019-04-25T06:24:51.468Z,18.20
2019-04-25T06:27:22.108Z,17.10
2019-04-25T06:29:58.993Z,17.60
2019-04-25T06:32:24.735Z,17.50
2019-04-25T06:34:54.240Z,18.20
2019-04-25T06:37:24.621Z,18.40
2019-04-25T06:39:53.687Z,17.20
2019-04-25T06:42:23.062Z,18.00
2019-04-25T06:44:54.444Z,18.40
2019-04-25T06:47:44.277Z,16.90
2019-04-25T06:50:13.648Z,17.20
2019-04-25T06:52:44.875Z,17.20
2019-04-25T06:55:15.132Z,17.30
2019-04-25T06:57:45.948Z,18.10
2019-04-25T07:00:17.529Z,18.60
2019-04-25T07:02:46.111Z,18.20
2019-04-25T07:05:26.590Z,17.80
2019-04-25T07:07:46.084Z,18.20
2019-04-25T07:10:15.096Z,18.30
2019-04-25T07:12:44.360Z,18.10
2019-04-25T07:15:14.592Z,17.50
2019-04-25T07:17:43.587Z,17.60
2019-04-25T07:20:15.152Z,17.00
2019-04-25T07:22:43.825Z,17.20
2019-04-25T07:25:14.211Z,17.80
2019-04-25T07:27:44.794Z,17.80
2019-04-25T07:30:26.883Z,17.80
2019-04-25T07:32:47.966Z,17.40
2019-04-25T07:35:16.651Z,17.80
2019-04-25T07:37:45.240Z,17.10
2019-04-25T07:40:14.851Z,17.30
2019-04-25T07:42:43.975Z,17.70
2019-04-25T07:45:14.063Z,17.50
2019-04-25T07:47:44.165Z,17.40
2019-04-25T07:50:15.095Z,17.00
2019-04-25T07:52:44.328Z,17.30
2019-04-25T07:55:13.814Z,17.30
2019-04-25T07:57:44.203Z,17.40
2019-04-25T08:00:16.051Z,17.80
2019-04-25T08:02:44.724Z,17.90
2019-04-25T08:05:16.104Z,17.80
2019-04-25T08:07:44.764Z,17.90
2019-04-25T08:10:14.591Z,17.50
2019-04-25T08:12:44.425Z,17.80
2019-04-25T08:15:20.596Z,18.60
2019-04-25T08:17:56.860Z,18.20
2019-04-25T08:20:26.509Z,18.70
2019-04-25T08:22:58.448Z,19.00
2019-04-25T08:25:25.811Z,19.40
2019-04-25T08:27:55.214Z,19.60
2019-04-25T08:30:24.454Z,19.10
2019-04-25T08:32:54.064Z,19.30
2019-04-25T08:35:24.061Z,19.90
2019-04-25T08:37:53.722Z,20.10
2019-04-25T08:40:23.769Z,19.80
2019-04-25T08:42:53.796Z,20.10
2019-04-25T08:45:24.442Z,20.10
2019-04-25T08:47:53.776Z,19.80
2019-04-25T08:50:32.988Z,20.20
2019-04-25T08:53:00.850Z,20.50
2019-04-25T08:55:47.919Z,19.50
2019-04-25T08:58:20.799Z,19.00
2019-04-25T09:01:04.028Z,19.20
2019-04-25T09:03:44.312Z,19.20
2019-04-25T09:06:13.670Z,20.60
2019-04-25T09:08:44.015Z,21.50
2019-04-25T09:11:13.338Z,21.40
2019-04-25T09:13:43.477Z,21.60
2019-04-25T09:16:13.503Z,20.40
2019-04-25T09:18:44.304Z,20.60
2019-04-25T09:21:14.239Z,20.90
2019-04-25T09:23:43.726Z,20.70
2019-04-25T09:26:14.308Z,20.40
2019-04-25T09:28:45.297Z,20.60
2019-04-25T09:31:13.948Z,19.90
2019-04-25T09:33:45.044Z,20.30
2019-04-25T09:36:14.184Z,20.50
2019-04-25T09:38:46.674Z,21.10
2019-04-25T09:41:13.983Z,20.40
2019-04-25T09:43:45.589Z,20.30
2019-04-25T09:46:15.531Z,20.10
2019-04-25T09:49:01.951Z,20.10
2019-04-25T09:51:33.614Z,20.30
2019-04-25T09:54:04.181Z,20.60
2019-04-25T09:56:38.244Z,20.60
2019-04-25T09:59:11.567Z,20.60
2019-04-25T10:01:41.771Z,20.60
2019-04-25T10:04:10.526Z,20.40
2019-04-25T10:06:39.186Z,20.20
2019-04-25T10:09:10.123Z,20.30
2019-04-25T10:11:39.859Z,20.10
2019-04-25T10:14:24.489Z,20.40
2019-04-25T10:16:53.921Z,20.60
2019-04-25T10:19:23.548Z,20.90
2019-04-25T10:21:53.883Z,20.60
2019-04-25T10:24:23.154Z,20.20
2019-04-25T10:26:53.555Z,20.40
2019-04-25T10:29:22.107Z,20.70
2019-04-25T10:31:51.283Z,21.00
2019-04-25T10:34:20.146Z,20.90
2019-04-25T10:36:49.017Z,21.30
2019-04-25T10:39:17.673Z,21.20
2019-04-25T10:41:48.131Z,21.00
2019-04-25T10:44:16.911Z,20.90
2019-04-25T10:46:47.142Z,21.60
2019-04-25T10:49:15.995Z,21.60
2019-04-25T10:51:45.768Z,21.40
2019-04-25T10:54:14.752Z,21.40
2019-04-25T10:56:45.719Z,21.50
2019-04-25T10:59:14.452Z,21.80
2019-04-25T11:01:45.087Z,21.70
2019-04-25T11:04:15.292Z,21.40
2019-04-25T11:06:45.379Z,21.60
2019-04-25T11:09:18.896Z,21.60
2019-04-25T11:11:48.159Z,22.00
2019-04-25T11:14:16.855Z,21.50
2019-04-25T11:16:46.598Z,22.00
2019-04-25T11:19:15.423Z,22.10
2019-04-25T11:21:45.303Z,22.40
2019-04-25T11:24:14.402Z,22.40
2019-04-25T11:26:47.171Z,22.60
2019-04-25T11:29:14.971Z,22.70
2019-04-25T11:31:46.172Z,22.40
2019-04-25T11:34:17.208Z,22.90
2019-04-25T11:36:46.033Z,22.70
2019-04-25T11:39:23.932Z,21.50
2019-04-25T11:41:54.659Z,21.50
2019-04-25T11:44:24.560Z,22.10
2019-04-25T11:46:53.351Z,21.90
2019-04-25T11:49:23.864Z,21.70
2019-04-25T11:51:52.546Z,22.30
2019-04-25T11:54:21.203Z,22.40
2019-04-25T11:56:50.681Z,22.50
2019-04-25T11:59:19.581Z,22.10
2019-04-25T12:01:48.182Z,21.90
2019-04-25T12:04:16.814Z,22.10
2019-04-25T12:06:47.374Z,22.30
2019-04-25T12:09:15.638Z,22.20
2019-04-25T12:11:46.753Z,22.10
2019-04-25T12:14:14.858Z,22.40
2019-04-25T12:16:46.078Z,22.70
2019-04-25T12:19:14.015Z,22.40
2019-04-25T12:21:43.760Z,22.10
2019-04-25T12:24:13.693Z,22.20
2019-04-25T12:26:45.241Z,22.40
2019-04-25T12:29:14.276Z,22.30
2019-04-25T12:31:45.512Z,22.50
2019-04-25T12:34:14.159Z,22.70
2019-04-25T12:36:44.348Z,22.60
2019-04-25T12:39:14.072Z,23.00
2019-04-25T12:41:45.635Z,23.00
2019-04-25T12:44:14.842Z,22.30
2019-04-25T12:46:46.026Z,22.30
2019-04-25T12:49:15.251Z,22.20
2019-04-25T12:51:43.992Z,22.30
2019-04-25T12:54:13.823Z,22.30
2019-04-25T12:56:44.203Z,22.20
2019-04-25T12:59:12.731Z,22.60
2019-04-25T13:01:42.938Z,22.70
2019-04-25T13:04:11.702Z,22.50
2019-04-25T13:06:40.396Z,22.10
2019-04-25T13:09:11.637Z,22.30
2019-04-25T13:11:40.321Z,22.90
2019-04-25T13:14:08.904Z,22.40
2019-04-25T13:16:38.908Z,22.60
2019-04-25T13:19:17.944Z,22.40
2019-04-25T13:21:38.994Z,22.70
2019-04-25T13:24:07.929Z,22.30
2019-04-25T13:26:40.705Z,22.60
2019-04-25T13:29:21.290Z,22.80
2019-04-25T13:31:58.588Z,23.20
2019-04-25T13:34:36.701Z,23.10
2019-04-25T13:37:24.849Z,22.50
2019-04-25T13:39:54.064Z,22.50
2019-04-25T13:42:23.656Z,21.90
2019-04-25T13:44:54.276Z,21.90
2019-04-25T13:47:27.578Z,21.80
2019-04-25T13:49:53.909Z,22.10
2019-04-25T13:52:22.796Z,22.70
2019-04-25T13:54:53.765Z,22.80
2019-04-25T13:57:24.947Z,22.50
2019-04-25T13:59:59.869Z,22.40
2019-04-25T14:02:28.892Z,22.60
2019-04-25T14:04:57.793Z,22.70
2019-04-25T14:07:46.147Z,22.70
2019-04-25T14:10:14.930Z,22.50
2019-04-25T14:12:44.201Z,22.60
2019-04-25T14:15:15.225Z,23.00
2019-04-25T14:17:45.499Z,22.70
2019-04-25T14:20:21.891Z,22.40
2019-04-25T14:22:50.619Z,22.90
2019-04-25T14:25:19.383Z,23.10
2019-04-25T14:27:47.913Z,23.00
2019-04-25T14:30:18.564Z,22.90
2019-04-25T14:32:47.232Z,22.50
2019-04-25T14:35:16.119Z,22.60
2019-04-25T14:37:44.702Z,23.20
2019-04-25T14:40:14.040Z,22.90
2019-04-25T14:42:42.712Z,22.70
2019-04-25T14:45:11.734Z,22.90
2019-04-25T14:47:40.313Z,22.70
2019-04-25T14:50:09.367Z,22.70
2019-04-25T14:52:38.704Z,22.60
2019-04-25T14:55:09.571Z,22.40
2019-04-25T14:57:38.144Z,22.60
2019-04-25T15:00:09.647Z,22.80
2019-04-25T15:02:38.307Z,22.50
2019-04-25T15:05:07.217Z,22.60
2019-04-25T15:07:35.839Z,22.70
2019-04-25T15:10:06.161Z,22.60
2019-04-25T15:12:34.807Z,22.10
2019-04-25T15:15:03.571Z,22.40
2019-04-25T15:17:43.892Z,22.50
2019-04-25T15:20:05.151Z,22.70
2019-04-25T15:22:34.638Z,22.50
2019-04-25T15:25:06.215Z,22.30
2019-04-25T15:27:33.890Z,22.30
2019-04-25T15:30:04.159Z,22.30
2019-04-25T15:32:34.775Z,22.20
2019-04-25T15:35:05.526Z,22.30
2019-04-25T15:37:35.856Z,22.20
2019-04-25T15:40:08.139Z,22.10
2019-04-25T15:42:50.431Z,22.30
2019-04-25T15:45:36.496Z,22.40
2019-04-25T15:48:07.171Z,22.30
2019-04-25T15:50:35.758Z,22.10
2019-04-25T15:53:04.441Z,22.30
2019-04-25T15:55:33.186Z,22.20
2019-04-25T15:58:01.939Z,22.20
2019-04-25T16:00:32.777Z,22.00
2019-04-25T16:03:01.522Z,22.00
2019-04-25T16:05:30.189Z,21.90
2019-04-25T16:07:59.004Z,21.70
2019-04-25T16:10:28.410Z,21.80
2019-04-25T16:12:57.585Z,21.70
2019-04-25T16:15:27.583Z,21.50
2019-04-25T16:17:57.267Z,21.50
2019-04-25T16:20:25.908Z,21.40
2019-04-25T16:22:55.564Z,21.40
2019-04-25T16:25:24.227Z,21.50
2019-04-25T16:27:52.812Z,21.40
2019-04-25T16:30:23.137Z,21.40
2019-04-25T16:32:51.822Z,21.30
2019-04-25T16:35:20.514Z,21.20
2019-04-25T16:37:49.529Z,21.10
2019-04-25T16:40:18.306Z,21.00
2019-04-25T16:42:47.071Z,20.90
2019-04-25T16:45:16.056Z,20.80
2019-04-25T16:47:44.760Z,20.80
2019-04-25T16:50:16.232Z,20.70
2019-04-25T16:52:44.927Z,20.80
2019-04-25T16:55:15.071Z,20.90
2019-04-25T16:57:43.678Z,20.70
2019-04-25T17:00:14.699Z,20.80
2019-04-25T17:02:44.190Z,20.90
2019-04-25T17:05:13.132Z,20.60
2019-04-25T17:07:41.815Z,20.30
2019-04-25T17:10:10.573Z,20.20
2019-04-25T17:12:39.324Z,20.10
2019-04-25T17:15:25.759Z,19.90
2019-04-25T17:18:01.799Z,19.90
2019-04-25T17:20:32.312Z,19.80
2019-04-25T17:23:01.291Z,19.70
2019-04-25T17:25:30.167Z,19.60
2019-04-25T17:27:59.914Z,19.60
2019-04-25T17:30:31.230Z,19.50
2019-04-25T17:33:04.222Z,19.40
2019-04-25T17:35:52.167Z,19.30
2019-04-25T17:38:25.229Z,19.20
2019-04-25T17:40:53.804Z,19.20
2019-04-25T17:43:23.008Z,19.10
2019-04-25T17:45:51.631Z,19.00
2019-04-25T17:48:20.218Z,18.90
2019-04-25T17:50:48.867Z,18.80
2019-04-25T17:53:17.463Z,18.80
2019-04-25T17:55:46.123Z,18.70
2019-04-25T17:58:14.749Z,18.60
2019-04-25T18:00:45.821Z,18.60
2019-04-25T18:03:14.570Z,18.60
2019-04-25T18:05:44.019Z,18.50
2019-04-25T18:08:14.441Z,18.30
2019-04-25T18:10:43.017Z,18.30
2019-04-25T18:13:11.719Z,18.30
2019-04-25T18:15:58.497Z,18.20
2019-04-25T18:18:35.362Z,18.30
2019-04-25T18:21:04.053Z,18.20
2019-04-25T18:23:43.972Z,18.10
2019-04-25T18:26:23.268Z,18.00
2019-04-25T18:29:05.429Z,17.90
2019-04-25T18:31:35.515Z,17.90
2019-04-25T18:34:06.119Z,17.90
2019-04-25T18:36:37.410Z,17.90
2019-04-25T18:39:09.221Z,17.90
2019-04-25T18:41:39.798Z,17.90
2019-04-25T18:44:09.974Z,17.80
2019-04-25T18:46:42.635Z,17.80
2019-04-25T18:49:11.509Z,17.80
2019-04-25T18:51:40.777Z,17.80
2019-04-25T18:54:11.044Z,17.70
2019-04-25T18:56:47.570Z,17.80
2019-04-25T18:59:17.992Z,17.80
2019-04-25T19:01:54.219Z,17.80
2019-04-25T19:04:24.651Z,17.80
2019-04-25T19:06:58.058Z,17.70
2019-04-25T19:09:25.225Z,17.50
2019-04-25T19:11:53.925Z,17.40
2019-04-25T19:14:22.666Z,17.50
2019-04-25T19:16:51.951Z,17.40
2019-04-25T19:19:20.665Z,17.30
2019-04-25T19:21:49.924Z,17.40
2019-04-25T19:24:18.576Z,17.30
2019-04-25T19:26:47.908Z,17.40
2019-04-25T19:29:16.907Z,17.40
2019-04-25T19:31:46.335Z,17.30
2019-04-25T19:34:15.006Z,17.20
2019-04-25T19:36:44.855Z,17.30
2019-04-25T19:39:17.194Z,17.30
2019-04-25T19:41:48.061Z,17.30
2019-04-25T19:44:24.819Z,17.20
2019-04-25T19:46:54.116Z,17.30
2019-04-25T19:49:22.687Z,17.20
2019-04-25T19:51:52.808Z,17.10
2019-04-25T19:54:21.405Z,17.00
2019-04-25T19:56:50.008Z,17.00
2019-04-25T19:59:18.585Z,17.00
2019-04-25T20:01:48.151Z,16.80
2019-04-25T20:04:36.680Z,16.80
2019-04-25T20:07:09.445Z,16.90
2019-04-25T20:09:39.653Z,16.90
2019-04-25T20:12:08.530Z,16.90
2019-04-25T20:14:37.100Z,16.80
2019-04-25T20:17:05.802Z,16.80
2019-04-25T20:19:34.387Z,16.70
2019-04-25T20:22:03.020Z,16.70
2019-04-25T20:24:31.660Z,16.70
2019-04-25T20:27:00.341Z,16.70
2019-04-25T20:29:28.963Z,16.80
2019-04-25T20:31:57.684Z,16.80
2019-04-25T20:34:26.332Z,16.80
2019-04-25T20:36:55.774Z,16.80
2019-04-25T20:39:24.441Z,16.70
2019-04-25T20:41:53.939Z,16.70
2019-04-25T20:44:22.689Z,16.70
2019-04-25T20:46:51.475Z,16.70
2019-04-25T20:49:20.513Z,16.60
2019-04-25T20:51:49.074Z,16.60
2019-04-25T20:54:17.610Z,16.50
2019-04-25T20:56:46.726Z,16.40
2019-04-25T20:59:19.576Z,16.40
2019-04-25T21:01:48.261Z,16.30
2019-04-25T21:04:38.099Z,16.20
2019-04-25T21:07:06.706Z,16.30
2019-04-25T21:09:35.344Z,16.20
2019-04-25T21:12:04.466Z,16.10
2019-04-25T21:14:35.187Z,16.00
2019-04-25T21:17:05.469Z,15.90
2019-04-25T21:19:35.895Z,15.80
2019-04-25T21:22:05.214Z,15.80
2019-04-25T21:24:33.788Z,15.80
2019-04-25T21:27:02.384Z,15.60
2019-04-25T21:29:31.011Z,15.60
2019-04-25T21:32:01.001Z,15.70
2019-04-25T21:34:31.333Z,15.80
2019-04-25T21:37:00.181Z,15.80
2019-04-25T21:39:51.327Z,15.70
2019-04-25T21:42:27.866Z,15.80
2019-04-25T21:44:56.632Z,15.70
2019-04-25T21:47:25.224Z,15.70
2019-04-25T21:49:54.332Z,15.80
2019-04-25T21:52:24.211Z,15.80
2019-04-25T21:54:53.143Z,15.80
2019-04-25T21:57:22.024Z,15.70
2019-04-25T22:00:00.383Z,15.60
2019-04-25T22:02:27.369Z,15.40
2019-04-25T22:04:56.683Z,15.40
2019-04-25T22:07:25.680Z,15.40
2019-04-25T22:09:55.596Z,15.40
2019-04-25T22:12:24.899Z,15.40
2019-04-25T22:14:53.623Z,15.40
2019-04-25T22:17:23.057Z,15.40
2019-04-25T22:19:52.204Z,15.30
2019-04-25T22:22:22.212Z,15.40
2019-04-25T22:24:52.711Z,15.60
2019-04-25T22:27:22.961Z,15.50
2019-04-25T22:29:53.216Z,15.60
2019-04-25T22:32:23.811Z,15.60
2019-04-25T22:34:54.034Z,15.60
2019-04-25T22:37:22.734Z,15.70
2019-04-25T22:39:51.524Z,15.70
2019-04-25T22:42:20.086Z,15.60
2019-04-25T22:44:48.648Z,15.50
2019-04-25T22:47:17.684Z,15.30
2019-04-25T22:49:46.424Z,15.20
2019-04-25T22:52:15.344Z,15.10
2019-04-25T22:54:44.275Z,15.10
2019-04-25T22:57:13.122Z,15.00
2019-04-25T22:59:41.976Z,15.00
2019-04-25T23:02:26.916Z,15.00
2019-04-25T23:05:09.476Z,15.00
2019-04-25T23:07:34.198Z,15.10
2019-04-25T23:10:04.403Z,15.10
2019-04-25T23:12:33.382Z,15.00
2019-04-25T23:15:02.594Z,15.10
2019-04-25T23:17:32.226Z,15.00
2019-04-25T23:20:01.086Z,15.00
2019-04-25T23:22:29.711Z,15.10
2019-04-25T23:25:00.139Z,15.10
2019-04-25T23:27:35.823Z,15.20
2019-04-25T23:30:08.029Z,15.10
2019-04-25T23:32:36.998Z,15.10
2019-04-25T23:35:22.110Z,15.00
2019-04-25T23:37:36.201Z,15.30
2019-04-25T23:40:06.733Z,15.30
2019-04-25T23:42:36.339Z,15.30
2019-04-25T23:45:08.066Z,15.20
2019-04-25T23:47:36.689Z,15.20
2019-04-25T23:50:08.684Z,15.30
2019-04-25T23:52:37.716Z,15.20
2019-04-25T23:55:06.974Z,15.20
2019-04-25T23:57:37.129Z,15.20
